createdAt,value
2023-03-25T00:01:29.963Z,100.00
2023-03-25T00:04:04.481Z,100.00
2023-03-25T00:06:37.978Z,100.00
2023-03-25T00:09:12.182Z,100.00
2023-03-25T00:11:45.790Z,100.00
2023-03-25T00:14:19.585Z,100.00
2023-03-25T00:16:53.437Z,100.00
2023-03-25T00:19:28.016Z,100.00
2023-03-25T00:22:01.843Z,100.00
2023-03-25T00:24:35.875Z,100.00
2023-03-25T00:27:08.702Z,100.00
2023-03-25T00:29:42.238Z,100.00
2023-03-25T00:32:16.487Z,100.00
2023-03-25T00:34:50.222Z,100.00
2023-03-25T00:37:25.888Z,100.00
2023-03-25T00:40:00.135Z,100.00
2023-03-25T00:42:35.141Z,100.00
2023-03-25T00:45:11.207Z,100.00
2023-03-25T00:47:44.591Z,100.00
2023-03-25T00:50:18.639Z,100.00
2023-03-25T00:52:53.824Z,100.00
2023-03-25T00:55:27.208Z,100.00
2023-03-25T00:58:00.857Z,100.00
2023-03-25T01:00:34.462Z,100.00
2023-03-25T01:03:09.920Z,100.00
2023-03-25T01:05:43.392Z,100.00
2023-03-25T01:08:18.074Z,100.00
2023-03-25T01:10:51.330Z,100.00
2023-03-25T01:13:25.634Z,100.00
2023-03-25T01:15:58.891Z,100.00
2023-03-25T01:18:35.028Z,100.00
2023-03-25T01:21:10.643Z,100.00
2023-03-25T01:23:44.653Z,100.00
2023-03-25T01:26:18.276Z,100.00
2023-03-25T01:28:51.423Z,100.00
2023-03-25T01:31:26.234Z,100.00
2023-03-25T01:33:59.676Z,100.00
2023-03-25T01:36:33.827Z,100.00
2023-03-25T01:39:08.636Z,100.00
2023-03-25T01:41:49.148Z,100.00
2023-03-25T01:44:58.434Z,100.00
2023-03-25T01:47:33.082Z,100.00
2023-03-25T01:50:08.947Z,100.00
2023-03-25T01:52:42.719Z,100.00
2023-03-25T01:55:18.151Z,100.00
2023-03-25T01:57:54.627Z,100.00
2023-03-25T02:00:28.889Z,100.00
2023-03-25T02:03:03.445Z,100.00
2023-03-25T02:05:43.906Z,100.00
2023-03-25T02:08:18.280Z,100.00
2023-03-25T02:10:52.518Z,100.00
2023-03-25T02:13:26.468Z,100.00
2023-03-25T02:16:29.590Z,100.00
2023-03-25T02:19:26.381Z,100.00
2023-03-25T02:22:43.314Z,100.00
2023-03-25T02:25:39.892Z,100.00
2023-03-25T02:28:26.386Z,100.00
2023-03-25T02:31:38.130Z,100.00
2023-03-25T02:34:46.394Z,100.00
2023-03-25T02:37:59.583Z,100.00
2023-03-25T02:40:41.769Z,100.00
2023-03-25T02:43:21.537Z,100.00
2023-03-25T02:46:01.122Z,100.00
2023-03-25T02:48:39.490Z,100.00
2023-03-25T02:51:19.324Z,100.00
2023-03-25T02:53:54.613Z,100.00
2023-03-25T02:56:33.315Z,100.00
2023-03-25T02:59:09.952Z,100.00
2023-03-25T03:01:45.765Z,100.00
2023-03-25T03:04:19.472Z,100.00
2023-03-25T03:06:54.909Z,100.00
2023-03-25T03:09:39.717Z,100.00
2023-03-25T03:12:29.587Z,100.00
2023-03-25T03:15:17.422Z,100.00
2023-03-25T03:17:58.532Z,100.00
2023-03-25T03:20:41.076Z,100.00
2023-03-25T03:23:15.225Z,100.00
2023-03-25T03:25:54.353Z,100.00
2023-03-25T03:28:34.300Z,100.00
2023-03-25T03:31:13.196Z,100.00
2023-03-25T03:34:11.179Z,100.00
2023-03-25T03:36:49.582Z,100.00
2023-03-25T03:39:29.771Z,100.00
2023-03-25T03:42:07.995Z,100.00
2023-03-25T03:44:45.617Z,100.00
2023-03-25T03:47:23.932Z,100.00
2023-03-25T03:50:01.308Z,100.00
2023-03-25T03:52:38.746Z,100.00
2023-03-25T03:55:15.770Z,100.00
2023-03-25T03:57:56.117Z,100.00
2023-03-25T04:00:34.291Z,100.00
2023-03-25T04:03:14.779Z,100.00
2023-03-25T04:05:55.159Z,100.00
2023-03-25T04:08:35.825Z,100.00
2023-03-25T04:11:18.176Z,100.00
2023-03-25T04:13:51.004Z,100.00
2023-03-25T04:16:24.940Z,100.00
2023-03-25T04:18:58.772Z,100.00
2023-03-25T04:21:31.966Z,100.00
2023-03-25T04:24:08.419Z,100.00
2023-03-25T04:26:42.466Z,100.00
2023-03-25T04:29:15.905Z,100.00
2023-03-25T04:31:50.882Z,100.00
2023-03-25T04:34:24.910Z,100.00
2023-03-25T04:36:59.065Z,100.00
2023-03-25T04:39:32.888Z,100.00
2023-03-25T04:42:06.785Z,100.00
2023-03-25T04:44:40.501Z,100.00
2023-03-25T04:47:18.126Z,100.00
2023-03-25T04:49:51.587Z,100.00
2023-03-25T04:52:25.611Z,100.00
2023-03-25T04:54:58.996Z,100.00
2023-03-25T04:57:32.843Z,100.00
2023-03-25T05:00:07.833Z,100.00
2023-03-25T05:02:46.242Z,100.00
2023-03-25T05:05:21.564Z,100.00
2023-03-25T05:07:58.535Z,100.00
2023-03-25T05:10:32.650Z,100.00
2023-03-25T05:13:07.828Z,100.00
2023-03-25T05:15:41.295Z,100.00
2023-03-25T05:18:17.271Z,100.00
2023-03-25T05:20:51.776Z,100.00
2023-03-25T05:23:25.170Z,100.00
2023-03-25T05:25:58.736Z,100.00
2023-03-25T05:28:32.145Z,100.00
2023-03-25T05:31:08.626Z,100.00
2023-03-25T05:33:43.718Z,100.00
2023-03-25T05:36:17.789Z,100.00
2023-03-25T05:38:51.466Z,100.00
2023-03-25T05:41:32.927Z,100.00
2023-03-25T05:44:07.187Z,100.00
2023-03-25T05:59:22.116Z,100.00
2023-03-25T06:01:55.532Z,100.00
2023-03-25T06:04:29.313Z,100.00
2023-03-25T07:11:26.615Z,100.00
2023-03-25T07:57:44.574Z,100.00
2023-03-25T08:00:19.004Z,100.00
2023-03-25T08:02:53.261Z,100.00
2023-03-25T08:08:01.255Z,100.00
2023-03-25T08:28:27.610Z,100.00
2023-03-25T08:31:02.798Z,100.00
2023-03-25T08:33:41.368Z,100.00
2023-03-25T08:36:20.431Z,100.00
2023-03-25T08:38:54.353Z,100.00
2023-03-25T08:41:28.145Z,100.00
2023-03-25T08:44:01.725Z,100.00
2023-03-25T08:46:35.383Z,100.00
2023-03-25T08:49:09.050Z,100.00
2023-03-25T08:51:42.851Z,100.00
2023-03-25T08:54:16.456Z,100.00
2023-03-25T08:56:50.525Z,100.00
2023-03-25T08:59:24.794Z,100.00
2023-03-25T09:02:00.789Z,100.00
2023-03-25T09:04:34.748Z,100.00
2023-03-25T09:07:12.586Z,100.00
2023-03-25T09:09:46.043Z,100.00
2023-03-25T09:12:19.503Z,100.00
2023-03-25T09:14:52.831Z,100.00
2023-03-25T09:17:27.528Z,100.00
2023-03-25T09:20:01.003Z,100.00
2023-03-25T09:22:34.323Z,100.00
2023-03-25T09:25:10.937Z,100.00
2023-03-25T09:27:43.896Z,100.00
2023-03-25T09:30:19.661Z,100.00
2023-03-25T09:32:53.186Z,100.00
2023-03-25T09:35:26.775Z,100.00
2023-03-25T09:38:00.196Z,100.00
2023-03-25T09:40:35.789Z,100.00
2023-03-25T09:43:22.498Z,100.00
2023-03-25T09:45:58.290Z,100.00
2023-03-25T09:48:38.331Z,100.00
2023-03-25T09:51:19.579Z,100.00
2023-03-25T09:53:57.491Z,100.00
2023-03-25T09:56:41.895Z,100.00
2023-03-25T09:59:19.828Z,100.00
2023-03-25T10:02:03.600Z,100.00
2023-03-25T10:04:57.460Z,100.00
2023-03-25T10:07:46.227Z,100.00
2023-03-25T10:10:27.184Z,100.00
2023-03-25T10:13:08.913Z,100.00
2023-03-25T10:15:46.249Z,100.00
2023-03-25T10:18:39.121Z,100.00
2023-03-25T10:21:18.245Z,100.00
2023-03-25T10:23:59.214Z,100.00
2023-03-25T10:26:38.692Z,100.00
2023-03-25T10:29:16.989Z,99.79
2023-03-25T10:31:54.373Z,98.57
2023-03-25T10:34:37.580Z,97.55
2023-03-25T10:37:18.367Z,97.14
2023-03-25T10:39:52.318Z,94.76
2023-03-25T10:42:33.741Z,94.33
2023-03-25T10:45:14.506Z,92.50
2023-03-25T10:47:51.418Z,89.57
2023-03-25T10:50:26.361Z,86.42
2023-03-25T10:53:00.301Z,83.84
2023-03-25T10:55:37.622Z,83.81
2023-03-25T10:58:12.672Z,83.29
2023-03-25T11:00:46.008Z,84.42
2023-03-25T11:03:23.664Z,82.78
2023-03-25T11:05:57.121Z,81.24
2023-03-25T11:08:30.731Z,81.50
2023-03-25T11:11:06.262Z,79.05
2023-03-25T11:13:41.714Z,79.00
2023-03-25T11:16:16.073Z,77.73
2023-03-25T11:18:49.756Z,76.78
2023-03-25T11:21:23.968Z,77.23
2023-03-25T11:23:57.956Z,75.81
2023-03-25T11:26:38.727Z,76.28
2023-03-25T11:29:16.950Z,75.02
2023-03-25T11:31:59.423Z,75.49
2023-03-25T11:34:33.321Z,76.47
2023-03-25T11:37:17.505Z,77.00
2023-03-25T11:39:55.781Z,77.80
2023-03-25T11:42:34.417Z,76.83
2023-03-25T11:45:20.390Z,74.21
2023-03-25T11:47:54.944Z,75.18
2023-03-25T11:50:30.718Z,72.88
2023-03-25T11:53:06.223Z,69.68
2023-03-25T11:55:47.086Z,70.77
2023-03-25T11:58:23.532Z,71.61
2023-03-25T12:01:05.496Z,71.65
2023-03-25T12:03:39.827Z,71.36
2023-03-25T12:06:20.466Z,70.47
2023-03-25T12:08:55.645Z,70.68
2023-03-25T12:11:34.064Z,70.61
2023-03-25T12:14:27.699Z,69.39
2023-03-25T12:17:07.718Z,70.42
2023-03-25T12:19:54.425Z,70.53
2023-03-25T12:22:46.424Z,70.09
2023-03-25T12:25:33.990Z,69.42
2023-03-25T12:28:32.480Z,70.17
2023-03-25T12:31:11.579Z,70.99
2023-03-25T12:33:59.642Z,68.80
2023-03-25T12:36:45.732Z,69.86
2023-03-25T12:39:43.333Z,70.65
2023-03-25T12:42:29.792Z,69.79
2023-03-25T12:45:23.938Z,69.25
2023-03-25T12:48:03.991Z,68.32
2023-03-25T12:50:49.828Z,68.21
2023-03-25T12:53:46.250Z,67.92
2023-03-25T12:56:37.806Z,66.98
2023-03-25T12:59:38.647Z,66.16
2023-03-25T13:02:31.822Z,65.67
2023-03-25T13:05:17.655Z,65.96
2023-03-25T13:07:55.986Z,65.18
2023-03-25T13:10:35.567Z,64.95
2023-03-25T13:13:15.746Z,64.67
2023-03-25T13:15:54.659Z,65.16
2023-03-25T13:18:33.000Z,63.45
2023-03-25T13:21:14.187Z,62.76
2023-03-25T13:23:54.129Z,63.39
2023-03-25T13:26:31.624Z,64.06
2023-03-25T13:29:09.177Z,63.34
2023-03-25T13:31:47.061Z,63.45
2023-03-25T13:34:30.067Z,62.59
2023-03-25T13:37:18.061Z,62.98
2023-03-25T13:40:04.379Z,63.59
2023-03-25T13:42:44.441Z,62.62
2023-03-25T13:45:21.433Z,62.58
2023-03-25T13:48:03.870Z,62.73
2023-03-25T13:50:38.010Z,64.23
2023-03-25T13:53:20.317Z,64.51
2023-03-25T13:56:15.115Z,64.06
2023-03-25T13:59:06.512Z,65.02
2023-03-25T14:01:54.940Z,64.48
2023-03-25T14:04:49.128Z,65.41
2023-03-25T14:07:59.427Z,65.45
2023-03-25T14:11:03.192Z,64.61
2023-03-25T14:13:41.232Z,61.98
2023-03-25T14:16:17.462Z,61.49
2023-03-25T14:18:54.086Z,61.25
2023-03-25T14:21:34.219Z,61.74
2023-03-25T14:24:13.040Z,61.72
2023-03-25T14:26:52.303Z,62.75
2023-03-25T14:29:37.819Z,63.26
2023-03-25T14:32:32.654Z,63.79
2023-03-25T14:35:41.878Z,63.01
2023-03-25T14:38:55.123Z,63.71
2023-03-25T14:41:59.097Z,63.01
2023-03-25T14:44:33.505Z,63.11
2023-03-25T14:47:33.071Z,63.92
2023-03-25T14:50:31.026Z,65.23
2023-03-25T14:53:11.901Z,65.67
2023-03-25T14:55:48.696Z,65.40
2023-03-25T14:58:25.314Z,65.58
2023-03-25T15:01:01.142Z,65.35
2023-03-25T15:03:37.488Z,66.07
2023-03-25T15:06:16.465Z,67.45
2023-03-25T15:08:59.729Z,68.18
2023-03-25T15:11:37.471Z,68.15
2023-03-25T15:14:15.495Z,68.49
2023-03-25T15:17:05.030Z,69.22
2023-03-25T15:20:27.741Z,70.04
2023-03-25T15:23:33.128Z,71.44
2023-03-25T15:26:10.977Z,72.41
2023-03-25T15:29:11.549Z,74.19
2023-03-25T15:32:10.035Z,75.14
2023-03-25T15:35:14.804Z,76.22
2023-03-25T15:38:07.200Z,77.03
2023-03-25T15:40:57.770Z,78.68
2023-03-25T15:44:14.988Z,79.45
2023-03-25T15:47:22.192Z,80.28
2023-03-25T15:50:12.959Z,80.68
2023-03-25T15:53:35.907Z,80.53
2023-03-25T15:56:17.832Z,81.53
2023-03-25T15:58:58.906Z,82.27
2023-03-25T16:01:34.498Z,81.83
2023-03-25T16:04:12.865Z,82.43
2023-03-25T16:06:50.747Z,82.30
2023-03-25T16:09:28.695Z,81.36
2023-03-25T16:12:04.576Z,81.28
2023-03-25T16:14:39.434Z,81.64
2023-03-25T16:17:16.676Z,82.33
2023-03-25T16:19:53.221Z,82.94
2023-03-25T16:22:30.514Z,82.71
2023-03-25T16:25:06.798Z,82.86
2023-03-25T16:27:45.643Z,83.13
2023-03-25T16:30:29.268Z,83.25
2023-03-25T16:33:17.469Z,83.90
2023-03-25T16:35:56.650Z,84.57
2023-03-25T16:38:30.902Z,85.13
2023-03-25T16:41:05.792Z,85.39
2023-03-25T16:43:39.529Z,85.61
2023-03-25T16:46:16.407Z,86.46
2023-03-25T16:48:55.094Z,85.90
2023-03-25T16:51:32.329Z,86.83
2023-03-25T16:54:13.383Z,86.07
2023-03-25T16:56:47.014Z,85.76
2023-03-25T16:59:24.432Z,85.60
2023-03-25T17:01:59.659Z,84.72
2023-03-25T17:04:42.176Z,85.22
2023-03-25T17:07:21.109Z,84.58
2023-03-25T17:09:56.970Z,83.73
2023-03-25T17:12:31.964Z,83.87
2023-03-25T17:15:09.485Z,83.70
2023-03-25T17:17:49.718Z,84.34
2023-03-25T17:20:28.271Z,84.66
2023-03-25T17:23:04.583Z,85.04
2023-03-25T17:25:52.087Z,85.92
2023-03-25T17:28:33.884Z,87.18
2023-03-25T17:31:22.047Z,86.76
2023-03-25T17:34:00.696Z,87.51
2023-03-25T17:36:36.445Z,88.11
2023-03-25T17:39:19.112Z,88.14
2023-03-25T17:41:59.161Z,87.68
2023-03-25T17:44:37.474Z,87.72
2023-03-25T17:47:14.713Z,87.84
2023-03-25T17:49:48.346Z,87.77
2023-03-25T17:52:21.745Z,87.67
2023-03-25T17:54:55.342Z,88.63
2023-03-25T17:57:28.797Z,89.00
2023-03-25T18:00:02.202Z,89.59
2023-03-25T18:02:41.846Z,90.77
2023-03-25T18:05:15.982Z,90.99
2023-03-25T18:07:49.482Z,91.24
2023-03-25T18:10:25.710Z,91.52
2023-03-25T18:12:59.345Z,93.06
2023-03-25T18:15:33.454Z,92.28
2023-03-25T18:18:08.216Z,93.57
2023-03-25T18:20:41.672Z,93.80
2023-03-25T18:23:15.837Z,94.19
2023-03-25T18:25:49.405Z,93.54
2023-03-25T18:28:22.894Z,93.92
2023-03-25T18:30:58.873Z,94.95
2023-03-25T18:33:34.912Z,94.93
2023-03-25T18:36:10.690Z,95.71
2023-03-25T18:38:44.716Z,96.57
2023-03-25T18:41:18.563Z,95.57
2023-03-25T18:43:52.184Z,96.17
2023-03-25T18:46:25.777Z,96.72
2023-03-25T18:49:03.060Z,96.23
2023-03-25T18:51:37.670Z,96.93
2023-03-25T18:54:11.084Z,97.76
2023-03-25T18:56:44.629Z,97.61
2023-03-25T18:59:20.792Z,97.85
2023-03-25T19:01:54.194Z,98.14
2023-03-25T19:04:29.776Z,98.79
2023-03-25T19:07:04.227Z,99.43
2023-03-25T19:09:37.594Z,100.00
2023-03-25T19:12:12.132Z,100.00
2023-03-25T19:14:45.404Z,100.00
2023-03-25T19:17:19.027Z,100.00
2023-03-25T19:19:52.401Z,100.00
2023-03-25T19:22:26.220Z,100.00
2023-03-25T19:25:00.101Z,100.00
2023-03-25T19:27:33.637Z,100.00
2023-03-25T19:30:09.118Z,100.00
2023-03-25T19:32:44.306Z,100.00
2023-03-25T19:35:19.139Z,100.00
2023-03-25T19:37:52.540Z,100.00
2023-03-25T19:40:28.762Z,100.00
2023-03-25T19:43:05.396Z,100.00
2023-03-25T19:45:38.840Z,100.00
2023-03-25T19:48:12.440Z,100.00
2023-03-25T19:50:45.632Z,100.00
2023-03-25T19:53:18.607Z,100.00
2023-03-25T19:55:52.983Z,100.00
2023-03-25T19:58:27.469Z,100.00
2023-03-25T20:01:01.748Z,100.00
2023-03-25T20:03:36.586Z,100.00
2023-03-25T20:06:11.554Z,100.00
2023-03-25T20:08:45.163Z,100.00
2023-03-25T20:11:18.731Z,100.00
2023-03-25T20:13:52.568Z,100.00
2023-03-25T20:16:28.007Z,100.00
2023-03-25T20:19:01.295Z,100.00
2023-03-25T20:21:34.976Z,100.00
2023-03-25T20:24:09.509Z,100.00
2023-03-25T20:26:42.806Z,100.00
2023-03-25T20:29:17.851Z,100.00
2023-03-25T20:31:51.339Z,100.00
2023-03-25T20:34:24.823Z,100.00
2023-03-25T20:36:58.226Z,100.00
2023-03-25T20:39:32.019Z,100.00
2023-03-25T20:42:05.823Z,100.00
2023-03-25T20:44:39.456Z,100.00
2023-03-25T20:47:13.651Z,100.00
2023-03-25T20:49:47.267Z,100.00
2023-03-25T20:52:21.049Z,100.00
2023-03-25T20:54:55.786Z,100.00
2023-03-25T20:57:29.343Z,100.00
2023-03-25T21:00:02.740Z,100.00
2023-03-25T21:02:36.118Z,100.00
2023-03-25T21:05:11.245Z,100.00
2023-03-25T21:07:44.858Z,100.00
2023-03-25T21:10:20.360Z,100.00
2023-03-25T21:12:53.733Z,100.00
2023-03-25T21:15:27.544Z,100.00
2023-03-25T21:18:01.225Z,100.00
2023-03-25T21:20:34.733Z,100.00
2023-03-25T21:23:10.003Z,100.00
2023-03-25T21:25:43.572Z,100.00
2023-03-25T21:28:18.161Z,100.00
2023-03-25T21:31:03.490Z,100.00
2023-03-25T21:33:38.576Z,100.00
2023-03-25T21:36:14.822Z,100.00
2023-03-25T21:38:48.775Z,100.00
2023-03-25T21:41:22.435Z,100.00
2023-03-25T21:43:55.492Z,100.00
2023-03-25T21:46:29.571Z,100.00
2023-03-25T21:49:04.565Z,100.00
2023-03-25T21:51:42.924Z,100.00
2023-03-25T21:54:16.316Z,100.00
2023-03-25T21:56:55.132Z,100.00
2023-03-25T21:59:28.840Z,100.00
2023-03-25T22:02:02.446Z,100.00
2023-03-25T22:04:37.877Z,100.00
2023-03-25T22:07:11.244Z,100.00
2023-03-25T22:09:44.700Z,100.00
2023-03-25T22:12:18.266Z,100.00
2023-03-25T22:14:51.947Z,100.00
2023-03-25T22:17:25.310Z,100.00
2023-03-25T22:19:58.660Z,100.00
2023-03-25T22:22:31.681Z,100.00
2023-03-25T22:25:05.643Z,100.00
2023-03-25T22:27:39.652Z,100.00
2023-03-25T22:30:16.937Z,100.00
2023-03-25T22:32:50.399Z,100.00
2023-03-25T22:35:24.136Z,100.00
2023-03-25T22:37:57.855Z,100.00
2023-03-25T22:40:31.142Z,100.00
2023-03-25T22:43:04.731Z,100.00
2023-03-25T22:45:38.193Z,100.00
2023-03-25T22:48:11.714Z,100.00
2023-03-25T22:50:45.733Z,100.00
2023-03-25T22:53:19.540Z,100.00
2023-03-25T22:55:55.458Z,100.00
2023-03-25T22:58:31.636Z,100.00
2023-03-25T23:01:07.633Z,100.00
2023-03-25T23:03:41.666Z,100.00
2023-03-25T23:06:15.672Z,100.00
2023-03-25T23:08:49.139Z,100.00
2023-03-25T23:11:25.592Z,100.00
2023-03-25T23:14:01.862Z,100.00
2023-03-25T23:16:35.990Z,100.00
2023-03-25T23:19:10.967Z,100.00
2023-03-25T23:21:44.727Z,100.00
2023-03-25T23:24:18.110Z,100.00
2023-03-25T23:26:51.581Z,100.00
2023-03-25T23:29:25.122Z,100.00
2023-03-25T23:31:58.553Z,100.00
2023-03-25T23:34:31.935Z,100.00
2023-03-25T23:37:06.739Z,100.00
2023-03-25T23:39:42.153Z,100.00
2023-03-25T23:42:15.972Z,100.00
2023-03-25T23:44:49.935Z,100.00
2023-03-25T23:47:23.430Z,100.00
2023-03-25T23:49:58.275Z,100.00
2023-03-25T23:52:33.631Z,100.00
2023-03-25T23:55:12.538Z,100.00
2023-03-25T23:57:46.164Z,100.00
